LGA weather

La Guardia Airport
New York, New York, United States

Public forecast

Using degrees Fahrenheit for public forecast. Weather courtesy of forecast.io.

METAR (pilot weather report)

Retrieved 2018/10/19 08:51 UTC (51 minutes ago):

KLGA 190851Z 24006KT 10SM CLR 08/M03 A3030 RMK AO2 SLP261 T00831028 58007

TAF (pilot weather forecast)

Retrieved 2018/10/19 06:28 UTC (3 hours ago):

TAF KLGA 190525Z 1906/2012 27005KT P6SM SKC FM191200 24008KT P6SM SKC FM191600 23012G18KT P6SM SKC FM191900 22012G20KT P6SM SCT250 FM200000 22011G18KT P6SM BKN250 FM200600 22014G23KT P6SM VCSH SCT040 BKN080 OVC120